Accueil
METAR-TAF:

METAR-TAF

Aéroports :

Aéroport Guardia Marina Zañartu

Puerto Williams, Chili

latitude: 54-56-00S, longitude: 067-37-00W, altitude: 27 m

Observation

Le bulletin a été fait il y a 14 heures et 38 minutes, à 21:00 UTC
Vent 8 kt de sud
Température 11°C
Humidité 62%
Pression 1017 hPa
Visibilité 10 km ou plus
Quelques nuages à une hauteur de 3600 ft
Nuages fragmentés à une hauteur de 4300 ft

METAR: SCGZ 032100Z 18008KT 9999 FEW036 BKN043 11/04 Q1017

Heure: 08:38 (11:38 UTC)


TAF: absent

Observations et prévisions météorologiques de plus de 4000 aéroports (messages METAR et TAF).

Les stations disponibles sont représentées par des disques jaunes et rouges sur la carte.

Passer la souris dessus pour voir le nom de la station.

Cliquer dessus pour voir les observations et prévisions météorologiques.

Pour changer de carte: cliquez sur les boutons verts avec une croix noire pour zoomer, sur le bouton vert avec un tiret pour effectuer un zoom arrière, ou sur les flèches vertes pour les cartes adjacentes.


METAR-TAF: